createdAt,value
2019-02-06T00:00:10.298Z,1020.80
2019-02-06T00:01:10.281Z,1020.78
2019-02-06T00:02:10.243Z,1020.80
2019-02-06T00:03:10.224Z,1020.73
2019-02-06T00:04:10.189Z,1020.75
2019-02-06T00:05:14.309Z,1020.75
2019-02-06T00:06:10.139Z,1020.74
2019-02-06T00:07:10.133Z,1020.73
2019-02-06T00:08:10.081Z,1020.69
2019-02-06T00:09:10.056Z,1020.71
2019-02-06T00:10:10.028Z,1020.69
2019-02-06T00:11:10.004Z,1020.72
2019-02-06T00:12:09.981Z,1020.68
2019-02-06T00:13:09.958Z,1020.66
2019-02-06T00:14:09.965Z,1020.68
2019-02-06T00:15:09.895Z,1020.68
2019-02-06T00:16:09.891Z,1020.69
2019-02-06T00:17:09.930Z,1020.74
2019-02-06T00:18:09.882Z,1020.75
2019-02-06T00:19:09.799Z,1020.75
2019-02-06T00:20:09.771Z,1020.76
2019-02-06T00:21:09.734Z,1020.78
2019-02-06T00:22:09.718Z,1020.79
2019-02-06T00:23:09.681Z,1020.80
2019-02-06T00:24:09.651Z,1020.81
2019-02-06T00:25:09.686Z,1020.76
2019-02-06T00:26:09.607Z,1020.80
2019-02-06T00:27:09.586Z,1020.74
2019-02-06T00:28:09.545Z,1020.67
2019-02-06T00:29:09.518Z,1020.64
2019-02-06T00:30:09.498Z,1020.61
2019-02-06T00:31:09.463Z,1020.61
2019-02-06T00:32:09.458Z,1020.55
2019-02-06T00:33:09.415Z,1020.52
2019-02-06T00:34:09.396Z,1020.54
2019-02-06T00:35:09.363Z,1020.53
2019-02-06T00:36:09.340Z,1020.53
2019-02-06T00:37:09.311Z,1020.54
2019-02-06T00:38:09.281Z,1020.55
2019-02-06T00:39:09.251Z,1020.56
2019-02-06T00:40:09.223Z,1020.55
2019-02-06T00:41:09.198Z,1020.57
2019-02-06T00:42:09.169Z,1020.53
2019-02-06T00:43:09.143Z,1020.50
2019-02-06T00:44:09.125Z,1020.54
2019-02-06T00:45:09.090Z,1020.49
2019-02-06T00:46:09.066Z,1020.55
2019-02-06T00:47:09.040Z,1020.55
2019-02-06T00:48:09.131Z,1020.55
2019-02-06T00:49:08.999Z,1020.51
2019-02-06T00:50:08.956Z,1020.53
2019-02-06T00:51:08.928Z,1020.48
2019-02-06T00:52:08.909Z,1020.51
2019-02-06T00:53:08.891Z,1020.48
2019-02-06T00:54:08.850Z,1020.48
2019-02-06T00:55:08.822Z,1020.42
2019-02-06T00:56:08.804Z,1020.51
2019-02-06T00:57:08.768Z,1020.51
2019-02-06T00:58:08.743Z,1020.46
2019-02-06T00:59:08.719Z,1020.49
2019-02-06T01:00:08.687Z,1020.50
2019-02-06T01:01:08.660Z,1020.50
2019-02-06T01:02:08.653Z,1020.45
2019-02-06T01:03:08.619Z,1020.45
2019-02-06T01:04:08.731Z,1020.50
2019-02-06T01:05:08.555Z,1020.40
2019-02-06T01:06:08.533Z,1020.40
2019-02-06T01:07:08.501Z,1020.42
2019-02-06T01:08:08.480Z,1020.37
2019-02-06T01:09:08.449Z,1020.38
2019-02-06T01:10:08.418Z,1020.37
2019-02-06T01:11:08.469Z,1020.33
2019-02-06T01:12:08.377Z,1020.32
2019-02-06T01:13:08.339Z,1020.33
2019-02-06T01:14:08.313Z,1020.32
2019-02-06T01:15:08.283Z,1020.34
2019-02-06T01:16:08.257Z,1020.31
2019-02-06T01:17:08.233Z,1020.30
2019-02-06T01:18:08.211Z,1020.30
2019-02-06T01:19:08.183Z,1020.27
2019-02-06T01:20:08.150Z,1020.26
2019-02-06T01:21:08.123Z,1020.19
2019-02-06T01:22:08.105Z,1020.23
2019-02-06T01:23:08.067Z,1020.21
2019-02-06T01:24:08.042Z,1020.20
2019-02-06T01:25:08.014Z,1020.15
2019-02-06T01:26:07.987Z,1020.19
2019-02-06T01:27:07.968Z,1020.23
2019-02-06T01:28:07.933Z,1020.19
2019-02-06T01:29:07.914Z,1020.24
2019-02-06T01:30:07.881Z,1020.17
2019-02-06T01:31:07.851Z,1020.19
2019-02-06T01:32:07.828Z,1020.19
2019-02-06T01:33:07.800Z,1020.16
2019-02-06T01:34:07.775Z,1020.18
2019-02-06T01:35:07.743Z,1020.20
2019-02-06T01:36:07.730Z,1020.20
2019-02-06T01:37:07.820Z,1020.19
2019-02-06T01:38:07.667Z,1020.18
2019-02-06T01:39:07.637Z,1020.14
2019-02-06T01:40:07.611Z,1020.12
2019-02-06T01:41:07.589Z,1020.10
2019-02-06T01:42:07.565Z,1020.11
2019-02-06T01:43:07.530Z,1020.11
2019-02-06T01:44:07.502Z,1020.13
2019-02-06T01:45:07.483Z,1020.15
2019-02-06T01:46:07.451Z,1020.11
2019-02-06T01:47:07.421Z,1020.12
2019-02-06T01:48:07.413Z,1020.12
2019-02-06T01:49:07.368Z,1020.14
2019-02-06T01:50:07.338Z,1020.13
2019-02-06T01:51:07.323Z,1020.15
2019-02-06T01:52:07.284Z,1020.15
2019-02-06T01:53:07.258Z,1020.14
2019-02-06T01:54:07.238Z,1020.14
2019-02-06T01:55:07.202Z,1020.19
2019-02-06T01:56:07.187Z,1020.16
2019-02-06T01:57:07.148Z,1020.10
2019-02-06T01:58:07.122Z,1020.08
2019-02-06T01:59:07.094Z,1020.04
2019-02-06T02:00:07.068Z,1020.02
2019-02-06T02:01:07.046Z,1020.03
2019-02-06T02:02:07.027Z,1020.03
2019-02-06T02:03:06.985Z,1019.99
2019-02-06T02:04:06.965Z,1019.98
2019-02-06T02:05:06.952Z,1019.94
2019-02-06T02:06:06.905Z,1020.00
2019-02-06T02:07:06.909Z,1019.95
2019-02-06T02:08:06.865Z,1019.95
2019-02-06T02:09:06.823Z,1019.98
2019-02-06T02:10:06.797Z,1019.98
2019-02-06T02:11:06.768Z,1019.97
2019-02-06T02:12:06.741Z,1019.96
2019-02-06T02:13:06.720Z,1019.95
2019-02-06T02:14:06.687Z,1019.90
2019-02-06T02:15:06.658Z,1019.88
2019-02-06T02:16:06.637Z,1019.91
2019-02-06T02:17:06.604Z,1019.88
2019-02-06T02:18:06.579Z,1019.86
2019-02-06T02:19:06.550Z,1019.88
2019-02-06T02:20:06.524Z,1019.87
2019-02-06T02:21:06.500Z,1019.87
2019-02-06T02:22:06.473Z,1019.92
2019-02-06T02:23:06.476Z,1019.88
2019-02-06T02:24:06.420Z,1019.90
2019-02-06T02:25:06.389Z,1019.89
2019-02-06T02:26:06.362Z,1019.89
2019-02-06T02:27:06.347Z,1019.86
2019-02-06T02:28:06.308Z,1019.86
2019-02-06T02:29:06.282Z,1019.84
2019-02-06T02:30:06.260Z,1019.87
2019-02-06T02:31:06.226Z,1019.83
2019-02-06T02:32:06.204Z,1019.86
2019-02-06T02:33:06.178Z,1019.79
2019-02-06T02:34:06.145Z,1019.80
2019-02-06T02:35:06.117Z,1019.81
2019-02-06T02:36:14.844Z,1019.81
2019-02-06T02:37:06.064Z,1019.76
2019-02-06T02:38:06.051Z,1019.75
2019-02-06T02:39:06.010Z,1019.71
2019-02-06T02:40:05.983Z,1019.73
2019-02-06T02:41:05.959Z,1019.73
2019-02-06T02:42:05.942Z,1019.77
2019-02-06T02:43:05.901Z,1019.66
2019-02-06T02:44:05.879Z,1019.65
2019-02-06T02:45:05.856Z,1019.60
2019-02-06T02:46:05.819Z,1019.57
2019-02-06T02:47:05.806Z,1019.52
2019-02-06T02:48:05.767Z,1019.53
2019-02-06T02:49:05.749Z,1019.55
2019-02-06T02:50:05.714Z,1019.52
2019-02-06T02:51:05.700Z,1019.52
2019-02-06T02:52:05.667Z,1019.37
2019-02-06T02:53:05.633Z,1019.35
2019-02-06T02:54:05.627Z,1019.32
2019-02-06T02:55:05.585Z,1019.25
2019-02-06T02:56:05.569Z,1019.25
2019-02-06T02:57:05.531Z,1019.24
2019-02-06T02:58:05.504Z,1019.25
2019-02-06T02:59:05.468Z,1019.26
2019-02-06T03:00:05.441Z,1019.30
2019-02-06T03:01:05.416Z,1019.31
2019-02-06T03:02:05.399Z,1019.32
2019-02-06T03:03:05.369Z,1019.31
2019-02-06T03:04:05.334Z,1019.24
2019-02-06T03:05:05.311Z,1019.26
2019-02-06T03:06:05.279Z,1019.24
2019-02-06T03:07:05.254Z,1019.22
2019-02-06T03:08:05.224Z,1019.22
2019-02-06T03:09:05.201Z,1019.13
2019-02-06T03:10:05.182Z,1019.11
2019-02-06T03:11:05.156Z,1019.07
2019-02-06T03:12:05.133Z,1019.04
2019-02-06T03:13:05.090Z,1019.02
2019-02-06T03:14:05.063Z,1019.02
2019-02-06T03:15:05.035Z,1019.04
2019-02-06T03:16:05.007Z,1019.05
2019-02-06T03:17:04.981Z,1019.02
2019-02-06T03:18:04.960Z,1019.01
2019-02-06T03:19:04.926Z,1018.96
2019-02-06T03:20:04.904Z,1018.93
2019-02-06T03:21:04.875Z,1018.93
2019-02-06T03:22:04.845Z,1018.87
2019-02-06T03:23:04.820Z,1018.86
2019-02-06T03:24:04.790Z,1018.84
2019-02-06T03:25:04.765Z,1018.87
2019-02-06T03:26:04.737Z,1018.82
2019-02-06T03:27:04.707Z,1018.79
2019-02-06T03:28:04.679Z,1018.71
2019-02-06T03:29:04.654Z,1018.69
2019-02-06T03:30:04.628Z,1018.69
2019-02-06T03:31:04.598Z,1018.65
2019-02-06T03:32:04.573Z,1018.55
2019-02-06T03:33:04.549Z,1018.52
2019-02-06T03:34:05.112Z,1018.54
2019-02-06T03:35:04.492Z,1018.49
2019-02-06T03:36:04.462Z,1018.48
2019-02-06T03:37:04.433Z,1018.51
2019-02-06T03:38:04.406Z,1018.42
2019-02-06T03:39:04.501Z,1018.44
2019-02-06T03:40:04.352Z,1018.43
2019-02-06T03:41:04.323Z,1018.36
2019-02-06T03:42:04.297Z,1018.39
2019-02-06T03:43:04.270Z,1018.36
2019-02-06T03:44:04.241Z,1018.37
2019-02-06T03:45:04.214Z,1018.36
2019-02-06T03:46:04.189Z,1018.35
2019-02-06T03:47:04.158Z,1018.35
2019-02-06T03:48:04.134Z,1018.30
2019-02-06T03:49:04.105Z,1018.30
2019-02-06T03:50:04.079Z,1018.26
2019-02-06T03:51:04.048Z,1018.21
2019-02-06T03:52:04.022Z,1018.17
2019-02-06T03:53:03.998Z,1018.16
2019-02-06T03:54:03.968Z,1018.14
2019-02-06T03:55:03.945Z,1018.15
2019-02-06T03:56:03.911Z,1018.17
2019-02-06T03:57:03.884Z,1018.18
2019-02-06T03:58:03.856Z,1018.15
2019-02-06T03:59:03.829Z,1018.12
2019-02-06T04:00:03.808Z,1018.17
2019-02-06T04:01:03.778Z,1018.22
2019-02-06T04:02:03.755Z,1018.21
2019-02-06T04:03:03.717Z,1018.21
2019-02-06T04:04:03.692Z,1018.23
2019-02-06T04:05:03.671Z,1018.18
2019-02-06T04:06:03.635Z,1018.18
2019-02-06T04:07:03.616Z,1018.18
2019-02-06T04:08:03.588Z,1018.17
2019-02-06T04:09:03.552Z,1018.13
2019-02-06T04:10:03.526Z,1018.09
2019-02-06T04:11:03.498Z,1018.13
2019-02-06T04:12:03.470Z,1018.11
2019-02-06T04:13:03.442Z,1018.15
2019-02-06T04:14:03.435Z,1018.14
2019-02-06T04:15:03.393Z,1018.09
2019-02-06T04:16:03.479Z,1018.10
2019-02-06T04:17:03.340Z,1018.09
2019-02-06T04:18:03.304Z,1018.10
2019-02-06T04:19:03.275Z,1018.04
2019-02-06T04:20:03.257Z,1018.06
2019-02-06T04:21:03.234Z,1018.02
2019-02-06T04:22:03.195Z,1018.10
2019-02-06T04:23:03.165Z,1018.07
2019-02-06T04:24:03.145Z,1018.07
2019-02-06T04:25:03.112Z,1018.08
2019-02-06T04:26:03.086Z,1018.09
2019-02-06T04:27:03.060Z,1018.10
2019-02-06T04:28:03.029Z,1018.05
2019-02-06T04:29:03.004Z,1018.05
2019-02-06T04:30:02.977Z,1018.13
2019-02-06T04:31:02.948Z,1018.10
2019-02-06T04:32:02.921Z,1018.08
2019-02-06T04:33:02.895Z,1018.05
2019-02-06T04:34:02.866Z,1018.02
2019-02-06T04:35:02.845Z,1018.01
2019-02-06T04:36:02.821Z,1017.96
2019-02-06T04:37:06.794Z,1017.95
2019-02-06T04:38:02.764Z,1017.93
2019-02-06T04:39:02.729Z,1017.97
2019-02-06T04:40:02.703Z,1017.97
2019-02-06T04:41:02.677Z,1017.89
2019-02-06T04:42:02.652Z,1017.94
2019-02-06T04:43:02.629Z,1017.92
2019-02-06T04:44:02.595Z,1017.89
2019-02-06T04:45:02.585Z,1017.94
2019-02-06T04:46:02.542Z,1017.89
2019-02-06T04:47:02.512Z,1017.96
2019-02-06T04:48:02.487Z,1017.92
2019-02-06T04:49:02.458Z,1017.94
2019-02-06T04:50:02.435Z,1017.92
2019-02-06T04:51:02.404Z,1017.88
2019-02-06T04:52:02.383Z,1017.87
2019-02-06T04:53:02.358Z,1017.91
2019-02-06T04:54:02.321Z,1017.91
2019-02-06T04:55:02.302Z,1017.90
2019-02-06T04:56:02.272Z,1017.84
2019-02-06T04:57:02.253Z,1017.82
2019-02-06T04:58:02.216Z,1017.82
2019-02-06T04:59:02.184Z,1017.80
2019-02-06T05:00:02.159Z,1017.79
2019-02-06T05:01:02.135Z,1017.77
2019-02-06T05:02:02.107Z,1017.77
2019-02-06T05:03:02.074Z,1017.77
2019-02-06T05:04:02.057Z,1017.75
2019-02-06T05:05:02.048Z,1017.76
2019-02-06T05:06:01.993Z,1017.73
2019-02-06T05:07:01.966Z,1017.71
2019-02-06T05:08:01.941Z,1017.74
2019-02-06T05:09:01.912Z,1017.70
2019-02-06T05:10:01.900Z,1017.70
2019-02-06T05:11:01.863Z,1017.71
2019-02-06T05:12:01.830Z,1017.70
2019-02-06T05:13:01.801Z,1017.70
2019-02-06T05:14:01.776Z,1017.72
2019-02-06T05:15:01.748Z,1017.72
2019-02-06T05:16:01.720Z,1017.75
2019-02-06T05:17:01.692Z,1017.72
2019-02-06T05:18:01.724Z,1017.74
2019-02-06T05:19:01.639Z,1017.74
2019-02-06T05:20:01.612Z,1017.74
2019-02-06T05:21:01.586Z,1017.71
2019-02-06T05:22:01.560Z,1017.67
2019-02-06T05:23:01.533Z,1017.66
2019-02-06T05:24:01.502Z,1017.64
2019-02-06T05:25:01.477Z,1017.65
2019-02-06T05:26:01.448Z,1017.68
2019-02-06T05:27:01.419Z,1017.69
2019-02-06T05:28:01.395Z,1017.63
2019-02-06T05:29:01.374Z,1017.64
2019-02-06T05:30:01.341Z,1017.65
2019-02-06T05:31:01.311Z,1017.64
2019-02-06T05:32:01.290Z,1017.59
2019-02-06T05:33:01.262Z,1017.61
2019-02-06T05:34:01.233Z,1017.48
2019-02-06T05:35:01.202Z,1017.50
2019-02-06T05:36:01.176Z,1017.52
2019-02-06T05:37:01.159Z,1017.54
2019-02-06T05:38:01.122Z,1017.48
2019-02-06T05:39:01.126Z,1017.50
2019-02-06T05:40:01.068Z,1017.42
2019-02-06T05:41:01.043Z,1017.44
2019-02-06T05:42:01.011Z,1017.46
2019-02-06T05:43:00.987Z,1017.44
2019-02-06T05:44:00.964Z,1017.40
2019-02-06T05:45:00.931Z,1017.40
2019-02-06T05:46:00.903Z,1017.45
2019-02-06T05:47:00.878Z,1017.36
2019-02-06T05:48:00.847Z,1017.32
2019-02-06T05:49:00.826Z,1017.27
2019-02-06T05:50:00.861Z,1017.29
2019-02-06T05:51:00.767Z,1017.22
2019-02-06T05:52:00.738Z,1017.26
2019-02-06T05:53:00.713Z,1017.26
2019-02-06T05:54:00.710Z,1017.22
2019-02-06T05:55:04.238Z,1017.25
2019-02-06T05:56:00.635Z,1017.24
2019-02-06T05:57:00.655Z,1017.24
2019-02-06T05:58:00.580Z,1017.23
2019-02-06T05:59:00.551Z,1017.21
2019-02-06T06:00:00.535Z,1017.23
2019-02-06T06:01:00.505Z,1017.22
2019-02-06T06:02:00.474Z,1017.22
2019-02-06T06:03:00.444Z,1017.17
2019-02-06T06:04:00.440Z,1017.19
2019-02-06T06:05:00.392Z,1017.20
2019-02-06T06:06:00.362Z,1017.19
2019-02-06T06:07:00.334Z,1017.27
2019-02-06T06:08:00.326Z,1017.27
2019-02-06T06:09:00.284Z,1017.27
2019-02-06T06:10:00.259Z,1017.27
2019-02-06T06:11:00.226Z,1017.31
2019-02-06T06:12:00.204Z,1017.34
2019-02-06T06:13:00.177Z,1017.34
2019-02-06T06:14:00.150Z,1017.33
2019-02-06T06:15:00.226Z,1017.34
2019-02-06T06:16:00.102Z,1017.35
2019-02-06T06:17:00.065Z,1017.37
2019-02-06T06:18:00.036Z,1017.35
2019-02-06T06:19:00.026Z,1017.33
2019-02-06T06:19:59.990Z,1017.31
2019-02-06T06:20:59.955Z,1017.29
2019-02-06T06:21:59.927Z,1017.27
2019-02-06T06:22:59.905Z,1017.27
2019-02-06T06:23:59.874Z,1017.28
2019-02-06T06:24:59.856Z,1017.25
2019-02-06T06:25:59.828Z,1017.23
2019-02-06T06:26:59.792Z,1017.23
2019-02-06T06:27:59.818Z,1017.23
2019-02-06T06:28:59.747Z,1017.21
2019-02-06T06:29:59.714Z,1017.22
2019-02-06T06:30:59.685Z,1017.24
2019-02-06T06:31:59.656Z,1017.18
2019-02-06T06:32:59.631Z,1017.18
2019-02-06T06:33:59.605Z,1017.19
2019-02-06T06:34:59.579Z,1017.17
2019-02-06T06:35:59.556Z,1017.19
2019-02-06T06:36:59.524Z,1017.18
2019-02-06T06:38:02.884Z,1017.17
2019-02-06T06:38:59.479Z,1017.15
2019-02-06T06:39:59.445Z,1017.13
2019-02-06T06:40:59.420Z,1017.17
2019-02-06T06:41:59.400Z,1017.18
2019-02-06T06:42:59.365Z,1017.23
2019-02-06T06:43:59.335Z,1017.23
2019-02-06T06:44:59.310Z,1017.22
2019-02-06T06:45:59.287Z,1017.23
2019-02-06T06:46:59.255Z,1017.28
2019-02-06T06:47:59.240Z,1017.24
2019-02-06T06:48:59.203Z,1017.26
2019-02-06T06:49:59.177Z,1017.27
2019-02-06T06:50:59.147Z,1017.22
2019-02-06T06:51:59.123Z,1017.24
2019-02-06T06:52:59.095Z,1017.23
2019-02-06T06:53:59.087Z,1017.17
2019-02-06T06:54:59.051Z,1017.15
2019-02-06T06:55:59.014Z,1017.13
2019-02-06T06:56:58.989Z,1017.16
2019-02-06T06:57:58.962Z,1017.13
2019-02-06T06:58:58.942Z,1017.10
2019-02-06T06:59:58.915Z,1017.14
2019-02-06T07:00:58.885Z,1017.13
2019-02-06T07:01:58.863Z,1017.09
2019-02-06T07:02:58.828Z,1017.10
2019-02-06T07:03:58.800Z,1017.14
2019-02-06T07:04:58.778Z,1017.16
2019-02-06T07:05:58.753Z,1017.16
2019-02-06T07:06:58.720Z,1017.19
2019-02-06T07:08:09.222Z,1017.21
2019-02-06T07:08:58.668Z,1017.17
2019-02-06T07:09:58.640Z,1017.15
2019-02-06T07:10:58.613Z,1017.15
2019-02-06T07:11:58.586Z,1017.17
2019-02-06T07:12:58.561Z,1017.17
2019-02-06T07:13:58.535Z,1017.15
2019-02-06T07:14:58.516Z,1017.12
2019-02-06T07:16:00.368Z,1017.16
2019-02-06T07:16:58.459Z,1017.14
2019-02-06T07:17:58.443Z,1017.10
2019-02-06T07:18:58.399Z,1017.06
2019-02-06T07:19:58.374Z,1017.07
2019-02-06T07:21:01.340Z,1017.07
2019-02-06T07:21:58.327Z,1017.08
2019-02-06T07:22:58.378Z,1017.11
2019-02-06T07:23:58.268Z,1017.11
2019-02-06T07:24:58.241Z,1017.09
2019-02-06T07:25:58.213Z,1017.13
2019-02-06T07:26:58.187Z,1017.16
2019-02-06T07:27:58.160Z,1017.08
2019-02-06T07:28:58.135Z,1017.07
2019-02-06T07:29:58.224Z,1017.10
2019-02-06T07:30:58.087Z,1017.15
2019-02-06T07:31:58.053Z,1017.13
2019-02-06T07:32:58.028Z,1017.13
2019-02-06T07:33:58.007Z,1017.08
2019-02-06T07:34:57.979Z,1017.12
2019-02-06T07:35:57.951Z,1017.07
2019-02-06T07:36:57.921Z,1017.14
2019-02-06T07:37:57.900Z,1017.13
2019-02-06T07:38:57.868Z,1017.14
2019-02-06T07:39:57.842Z,1017.12
2019-02-06T07:40:57.816Z,1017.08
2019-02-06T07:41:57.788Z,1017.08
2019-02-06T07:42:57.759Z,1017.04
2019-02-06T07:43:57.736Z,1017.05
2019-02-06T07:44:57.725Z,1017.02
2019-02-06T07:45:57.683Z,1016.97
2019-02-06T07:46:57.655Z,1016.98
2019-02-06T07:47:57.635Z,1017.00
2019-02-06T07:48:57.600Z,1016.90
2019-02-06T07:49:57.583Z,1016.92
2019-02-06T07:50:57.547Z,1016.91
2019-02-06T07:51:57.530Z,1016.88
2019-02-06T07:52:57.495Z,1016.86
2019-02-06T07:53:57.468Z,1016.90
2019-02-06T07:54:57.442Z,1016.92
2019-02-06T07:55:57.418Z,1016.95
2019-02-06T07:56:57.515Z,1016.94
2019-02-06T07:57:57.366Z,1016.92
2019-02-06T07:58:57.344Z,1016.88
2019-02-06T07:59:57.308Z,1016.85
2019-02-06T08:00:57.285Z,1016.80
2019-02-06T08:01:57.270Z,1016.75
2019-02-06T08:02:57.229Z,1016.78
2019-02-06T08:03:57.205Z,1016.80
2019-02-06T08:04:57.187Z,1016.83
2019-02-06T08:05:57.157Z,1016.84
2019-02-06T08:06:57.124Z,1016.78
2019-02-06T08:07:57.099Z,1016.78
2019-02-06T08:08:57.072Z,1016.77
2019-02-06T08:09:57.061Z,1016.79
2019-02-06T08:10:57.020Z,1016.81
2019-02-06T08:11:56.994Z,1016.82
2019-02-06T08:12:56.968Z,1016.85
2019-02-06T08:13:56.965Z,1016.82
2019-02-06T08:14:56.940Z,1016.79
2019-02-06T08:15:56.890Z,1016.83
2019-02-06T08:16:56.868Z,1016.84
2019-02-06T08:17:56.838Z,1016.83
2019-02-06T08:18:56.812Z,1016.79
2019-02-06T08:19:56.788Z,1016.77
2019-02-06T08:20:56.760Z,1016.76
2019-02-06T08:21:56.743Z,1016.80
2019-02-06T08:22:56.706Z,1016.79
2019-02-06T08:23:56.682Z,1016.77
2019-02-06T08:24:56.655Z,1016.73
2019-02-06T08:25:56.630Z,1016.72
2019-02-06T08:26:56.605Z,1016.78
2019-02-06T08:27:56.579Z,1016.83
2019-02-06T08:28:56.552Z,1016.86
2019-02-06T08:29:56.527Z,1016.86
2019-02-06T08:30:56.504Z,1016.87
2019-02-06T08:31:56.485Z,1016.88
2019-02-06T08:32:56.450Z,1016.91
2019-02-06T08:33:56.424Z,1016.97
2019-02-06T08:34:56.398Z,1016.95
2019-02-06T08:35:56.371Z,1016.98
2019-02-06T08:36:56.405Z,1017.02
2019-02-06T08:37:56.329Z,1017.04
2019-02-06T08:38:56.297Z,1017.02
2019-02-06T08:39:56.270Z,1017.05
2019-02-06T08:40:56.256Z,1017.05
2019-02-06T08:41:56.220Z,1017.06
2019-02-06T08:42:56.209Z,1017.11
2019-02-06T08:43:56.167Z,1017.16
2019-02-06T08:44:56.143Z,1017.16
2019-02-06T08:45:56.121Z,1017.20
2019-02-06T08:46:56.095Z,1017.20
2019-02-06T08:47:56.066Z,1017.16
2019-02-06T08:48:56.042Z,1017.19
2019-02-06T08:49:56.016Z,1017.19
2019-02-06T08:50:55.991Z,1017.19
2019-02-06T08:51:55.967Z,1017.20
2019-02-06T08:52:55.942Z,1017.22
2019-02-06T08:53:55.933Z,1017.20
2019-02-06T08:54:55.890Z,1017.22
2019-02-06T08:55:55.890Z,1017.19
2019-02-06T08:56:55.843Z,1017.22
2019-02-06T08:57:55.815Z,1017.17
2019-02-06T08:58:55.789Z,1017.18
2019-02-06T08:59:55.767Z,1017.15
2019-02-06T09:00:55.739Z,1017.15
2019-02-06T09:01:55.715Z,1017.13
2019-02-06T09:02:55.689Z,1017.12
2019-02-06T09:03:55.673Z,1017.13
2019-02-06T09:04:56.204Z,1017.10
2019-02-06T09:05:55.625Z,1017.17
2019-02-06T09:06:55.591Z,1017.17
2019-02-06T09:07:55.575Z,1017.24
2019-02-06T09:08:59.698Z,1017.20
2019-02-06T09:09:55.626Z,1017.23
2019-02-06T09:10:55.498Z,1017.23
2019-02-06T09:11:55.465Z,1017.24
2019-02-06T09:12:55.444Z,1017.26
2019-02-06T09:13:55.417Z,1017.26
2019-02-06T09:14:55.396Z,1017.24
2019-02-06T09:15:55.368Z,1017.22
2019-02-06T09:16:55.347Z,1017.20
2019-02-06T09:17:55.318Z,1017.23
2019-02-06T09:18:55.294Z,1017.21
2019-02-06T09:19:55.270Z,1017.20
2019-02-06T09:20:55.245Z,1017.23
2019-02-06T09:21:55.221Z,1017.18
2019-02-06T09:22:55.195Z,1017.17
2019-02-06T09:23:55.171Z,1017.18
2019-02-06T09:24:55.149Z,1017.21
2019-02-06T09:25:57.418Z,1017.20
2019-02-06T09:26:55.098Z,1017.23
2019-02-06T09:27:55.074Z,1017.18
2019-02-06T09:28:55.051Z,1017.21
2019-02-06T09:29:55.028Z,1017.24
2019-02-06T09:30:55.003Z,1017.27
2019-02-06T09:31:54.985Z,1017.17
2019-02-06T09:32:54.963Z,1017.18
2019-02-06T09:33:54.931Z,1017.25
2019-02-06T09:34:54.910Z,1017.22
2019-02-06T09:35:54.880Z,1017.21
2019-02-06T09:36:54.866Z,1017.20
2019-02-06T09:37:54.834Z,1017.15
2019-02-06T09:38:54.811Z,1017.14
2019-02-06T09:39:54.785Z,1017.15
2019-02-06T09:40:54.762Z,1017.12
2019-02-06T09:41:54.745Z,1017.15
2019-02-06T09:42:54.713Z,1017.18
2019-02-06T09:43:54.690Z,1017.17
2019-02-06T09:44:54.665Z,1017.17
2019-02-06T09:45:56.955Z,1017.14
2019-02-06T09:46:54.628Z,1017.18
2019-02-06T09:47:54.596Z,1017.19
2019-02-06T09:48:54.571Z,1017.17
2019-02-06T09:49:54.548Z,1017.13
2019-02-06T09:50:54.524Z,1017.13
2019-02-06T09:51:54.524Z,1017.09
2019-02-06T09:52:54.477Z,1017.12
2019-02-06T09:53:54.454Z,1017.16
2019-02-06T09:54:54.430Z,1017.17
2019-02-06T09:55:54.427Z,1017.11
2019-02-06T09:56:54.384Z,1017.10
2019-02-06T09:57:54.369Z,1017.13
2019-02-06T09:58:54.346Z,1017.10
2019-02-06T09:59:54.314Z,1017.15
2019-02-06T10:00:54.294Z,1017.18
2019-02-06T10:01:54.279Z,1017.16
2019-02-06T10:02:54.242Z,1017.15
2019-02-06T10:03:54.219Z,1017.11
2019-02-06T10:04:54.194Z,1017.10
2019-02-06T10:05:54.181Z,1017.09
2019-02-06T10:06:54.503Z,1017.05
2019-02-06T10:07:54.136Z,1017.04
2019-02-06T10:08:54.103Z,1017.05
2019-02-06T10:09:54.078Z,1017.00
2019-02-06T10:10:54.105Z,1017.02
2019-02-06T10:11:54.030Z,1016.98
2019-02-06T10:12:54.011Z,1016.96
2019-02-06T10:13:53.986Z,1016.98
2019-02-06T10:14:53.960Z,1016.94
2019-02-06T10:15:53.938Z,1017.01
2019-02-06T10:16:53.914Z,1016.98
2019-02-06T10:17:53.890Z,1017.01
2019-02-06T10:18:53.867Z,1017.00
2019-02-06T10:19:53.858Z,1017.01
2019-02-06T10:20:53.817Z,1017.02
2019-02-06T10:21:53.883Z,1017.02
2019-02-06T10:22:53.771Z,1016.98
2019-02-06T10:23:53.756Z,1016.98
2019-02-06T10:24:53.725Z,1017.00
2019-02-06T10:25:54.163Z,1016.99
2019-02-06T10:26:53.683Z,1016.98
2019-02-06T10:27:53.652Z,1016.97
2019-02-06T10:28:53.636Z,1016.96
2019-02-06T10:29:53.713Z,1017.01
2019-02-06T10:30:53.582Z,1016.95
2019-02-06T10:31:53.558Z,1017.02
2019-02-06T10:32:53.534Z,1016.97
2019-02-06T10:33:53.514Z,1017.01
2019-02-06T10:34:53.491Z,1017.00
2019-02-06T10:35:53.468Z,1016.99
2019-02-06T10:36:53.450Z,1016.97
2019-02-06T10:37:53.416Z,1016.95
2019-02-06T10:38:53.394Z,1016.92
2019-02-06T10:39:53.371Z,1016.94
2019-02-06T10:40:53.353Z,1016.94
2019-02-06T10:41:53.328Z,1016.88
2019-02-06T10:42:53.298Z,1016.94
2019-02-06T10:43:53.325Z,1016.89
2019-02-06T10:44:53.254Z,1016.86
2019-02-06T10:45:53.231Z,1016.88
2019-02-06T10:46:53.327Z,1016.87
2019-02-06T10:47:53.181Z,1016.87
2019-02-06T10:48:53.168Z,1016.81
2019-02-06T10:49:53.155Z,1016.94
2019-02-06T10:50:53.111Z,1016.86
2019-02-06T10:51:53.089Z,1016.83
2019-02-06T10:52:53.071Z,1016.87
2019-02-06T10:53:53.047Z,1016.85
2019-02-06T10:54:53.017Z,1016.89
2019-02-06T10:55:52.995Z,1016.81
2019-02-06T10:56:52.973Z,1016.83
2019-02-06T10:57:52.959Z,1016.77
2019-02-06T10:58:52.937Z,1016.81
2019-02-06T10:59:52.902Z,1016.76
2019-02-06T11:00:52.877Z,1016.79
2019-02-06T11:01:52.876Z,1016.79
2019-02-06T11:02:52.871Z,1016.75
2019-02-06T11:03:52.806Z,1016.79
2019-02-06T11:04:52.790Z,1016.81
2019-02-06T11:05:52.759Z,1016.77
2019-02-06T11:06:52.736Z,1016.75
2019-02-06T11:07:52.714Z,1016.76
2019-02-06T11:08:52.748Z,1016.71
2019-02-06T11:09:52.674Z,1016.76
2019-02-06T11:10:52.642Z,1016.75
2019-02-06T11:11:52.619Z,1016.73
2019-02-06T11:12:52.602Z,1016.72
2019-02-06T11:13:52.573Z,1016.73
2019-02-06T11:14:52.564Z,1016.72
2019-02-06T11:15:52.540Z,1016.68
2019-02-06T11:16:52.506Z,1016.68
2019-02-06T11:17:52.492Z,1016.70
2019-02-06T11:18:52.455Z,1016.68
2019-02-06T11:19:52.457Z,1016.68
2019-02-06T11:20:52.424Z,1016.67
2019-02-06T11:21:52.390Z,1016.70
2019-02-06T11:22:52.364Z,1016.63
2019-02-06T11:23:52.340Z,1016.65
2019-02-06T11:24:52.318Z,1016.67
2019-02-06T11:25:52.296Z,1016.66
2019-02-06T11:26:52.273Z,1016.66
2019-02-06T11:27:52.249Z,1016.69
2019-02-06T11:28:52.228Z,1016.69
2019-02-06T11:29:52.216Z,1016.68
2019-02-06T11:30:52.181Z,1016.61
2019-02-06T11:31:52.160Z,1016.64
2019-02-06T11:32:52.135Z,1016.62
2019-02-06T11:33:52.114Z,1016.62
2019-02-06T11:34:52.100Z,1016.55
2019-02-06T11:35:52.078Z,1016.60
2019-02-06T11:36:52.045Z,1016.56
2019-02-06T11:37:52.030Z,1016.57
2019-02-06T11:38:52.198Z,1016.54
2019-02-06T11:39:57.903Z,1016.53
2019-02-06T11:40:51.954Z,1016.51
2019-02-06T11:41:51.939Z,1016.51
2019-02-06T11:42:51.909Z,1016.48
2019-02-06T11:43:51.897Z,1016.46
2019-02-06T11:44:51.873Z,1016.41
2019-02-06T11:45:51.842Z,1016.40
2019-02-06T11:46:51.820Z,1016.43
2019-02-06T11:47:51.795Z,1016.41
2019-02-06T11:48:51.774Z,1016.41
2019-02-06T11:49:51.752Z,1016.39
2019-02-06T11:50:51.737Z,1016.37
2019-02-06T11:51:51.705Z,1016.40
2019-02-06T11:52:51.701Z,1016.33
2019-02-06T11:53:51.664Z,1016.30
2019-02-06T11:54:51.638Z,1016.27
2019-02-06T11:55:51.615Z,1016.31
2019-02-06T11:56:51.598Z,1016.30
2019-02-06T11:57:51.579Z,1016.30
2019-02-06T11:58:51.550Z,1016.32
2019-02-06T11:59:53.138Z,1016.28
2019-02-06T12:00:51.505Z,1016.29
2019-02-06T12:01:51.478Z,1016.28
2019-02-06T12:02:51.458Z,1016.32
2019-02-06T12:03:51.435Z,1016.31
2019-02-06T12:04:51.418Z,1016.30